Time;durP1;ratioP1;P1;durP2;ratioP2;P2;SDS_P1;SDS_P2;PMS_P1;PMS_P2;Temp;Humidity;BMP_temperature;BMP_pressure;BME280_temperature;BME280_humidity;BME280_pressure;Samples;Min_cycle;Max_cycle;Signal;HPM_P1;HPM_P2
2023/08/19 00:00:58;;;;;;;7.30;6.13;;;23.30;99.90;;;;;;5012675;28;20697;-80
2023/08/19 00:03:24;;;;;;;9.35;7.25;;;23.30;99.90;;;;;;5012675;28;20029;-81
2023/08/19 00:05:49;;;;;;;13.13;6.93;;;23.30;99.90;;;;;;5000179;28;20053;-79
2023/08/19 00:08:15;;;;;;;8.82;7.63;;;23.20;99.90;;;;;;5018478;28;20033;-80
2023/08/19 00:10:40;;;;;;;10.43;7.72;;;23.20;99.90;;;;;;5001801;28;20400;-80
2023/08/19 00:13:06;;;;;;;12.05;6.82;;;23.10;99.90;;;;;;5013972;28;20084;-80
2023/08/19 00:15:32;;;;;;;8.05;7.20;;;23.10;99.90;;;;;;4987765;28;20034;-80
2023/08/19 00:18:00;;;;;;;10.48;7.13;;;23.10;99.90;;;;;;5016743;28;20121;-80
2023/08/19 00:20:29;;;;;;;10.05;6.50;;;23.10;99.90;;;;;;5018086;28;20083;-80
2023/08/19 00:22:56;;;;;;;8.85;6.70;;;23.10;99.90;;;;;;5002888;28;20512;-80
2023/08/19 00:25:22;;;;;;;12.27;7.55;;;23.00;99.90;;;;;;4995744;28;20056;-80
2023/08/19 00:27:47;;;;;;;9.50;7.50;;;23.00;99.90;;;;;;5012859;28;20033;-79
2023/08/19 00:30:13;;;;;;;10.95;6.95;;;23.00;99.90;;;;;;5013950;28;20500;-80
2023/08/19 00:32:40;;;;;;;13.75;7.90;;;22.90;99.90;;;;;;5001249;28;20061;-80
2023/08/19 00:35:05;;;;;;;10.88;7.20;;;22.90;99.90;;;;;;5003165;28;20562;-79
2023/08/19 00:37:32;;;;;;;11.13;6.43;;;22.80;99.90;;;;;;5016637;28;20033;-81
2023/08/19 00:39:58;;;;;;;10.88;6.88;;;22.80;99.90;;;;;;5014350;28;20037;-79
2023/08/19 00:42:23;;;;;;;14.00;6.90;;;22.90;99.90;;;;;;5016124;28;20030;-80
2023/08/19 00:44:49;;;;;;;12.07;6.88;;;22.80;99.90;;;;;;4997936;28;20041;-79
2023/08/19 00:47:14;;;;;;;8.77;6.68;;;22.80;99.90;;;;;;5015025;28;20211;-79
2023/08/19 00:49:40;;;;;;;10.70;6.68;;;22.80;99.90;;;;;;5001569;28;20065;-80
2023/08/19 00:52:06;;;;;;;8.93;5.75;;;22.80;99.90;;;;;;5000167;28;20397;-79
2023/08/19 00:54:31;;;;;;;5.82;5.28;;;22.80;99.90;;;;;;5013397;28;20057;-80
2023/08/19 00:56:57;;;;;;;7.97;5.78;;;22.80;99.90;;;;;;4997667;28;20033;-80
2023/08/19 00:59:22;;;;;;;5.70;5.07;;;22.80;99.90;;;;;;5015041;28;20037;-79
2023/08/19 01:01:48;;;;;;;7.05;5.70;;;22.80;99.90;;;;;;5002041;28;20034;-79
2023/08/19 01:04:13;;;;;;;6.85;5.20;;;22.80;99.90;;;;;;5015280;28;20034;-80
2023/08/19 01:06:47;;;;;;;7.38;4.25;;;22.90;99.90;;;;;;5000523;28;20041;-80
2023/08/19 01:09:38;;;;;;;6.10;5.20;;;22.90;99.90;;;;;;5016347;28;20063;-80
2023/08/19 01:12:23;;;;;;;6.25;4.60;;;23.00;99.90;;;;;;5020219;28;20042;-80
2023/08/19 01:15:11;;;;;;;5.25;4.75;;;23.10;99.90;;;;;;4991316;28;20448;-80
2023/08/19 01:17:37;;;;;;;12.50;4.30;;;23.20;99.90;;;;;;5015613;28;20040;-79
2023/08/19 01:20:03;;;;;;;6.22;4.20;;;23.10;99.90;;;;;;5020110;28;20042;-80
2023/08/19 01:22:57;;;;;;;6.93;4.43;;;23.00;99.90;;;;;;5020565;28;20042;-79
2023/08/19 01:25:23;;;;;;;6.72;4.20;;;23.00;99.90;;;;;;5016675;28;20705;-80
2023/08/19 01:27:48;;;;;;;8.00;4.50;;;23.00;99.90;;;;;;4991036;28;20030;-79
2023/08/19 01:30:14;;;;;;;8.13;4.15;;;23.00;99.90;;;;;;5019304;28;20037;-80
2023/08/19 01:32:40;;;;;;;7.00;4.35;;;23.00;99.90;;;;;;5026907;28;20034;-80
2023/08/19 01:35:06;;;;;;;9.18;4.40;;;22.90;99.90;;;;;;5004196;28;20065;-79
2023/08/19 01:37:43;;;;;;;7.65;4.80;;;22.90;99.90;;;;;;4982445;28;20061;-80
2023/08/19 01:40:10;;;;;;;5.43;4.53;;;22.80;99.90;;;;;;5016114;28;20076;-79
2023/08/19 01:42:36;;;;;;;5.43;4.63;;;22.70;99.90;;;;;;5002744;28;20033;-79
2023/08/19 01:45:03;;;;;;;8.73;5.07;;;22.70;99.90;;;;;;5003358;28;20033;-79
2023/08/19 01:47:28;;;;;;;7.50;4.82;;;22.70;99.90;;;;;;5003291;28;20041;-79
2023/08/19 01:49:57;;;;;;;8.05;4.63;;;22.60;99.90;;;;;;5014448;28;20026;-80
2023/08/19 01:52:22;;;;;;;4.80;4.03;;;22.60;99.90;;;;;;5018813;28;20033;-80
2023/08/19 01:54:48;;;;;;;10.10;4.18;;;22.60;99.90;;;;;;5004411;28;20022;-79
2023/08/19 01:57:13;;;;;;;5.95;4.68;;;22.60;99.90;;;;;;5005686;28;20623;-79
2023/08/19 01:59:40;;;;;;;8.82;4.22;;;22.60;99.90;;;;;;5001984;28;20081;-80
2023/08/19 02:02:06;;;;;;;7.68;3.72;;;22.70;99.90;;;;;;5019376;28;20421;-80
2023/08/19 02:04:32;;;;;;;6.32;3.75;;;22.60;99.90;;;;;;5014358;28;20026;-79
2023/08/19 02:06:58;;;;;;;6.35;3.90;;;22.60;99.90;;;;;;5002428;28;20029;-79
2023/08/19 02:09:24;;;;;;;4.90;4.43;;;22.70;99.90;;;;;;5019498;28;20061;-80
2023/08/19 02:11:49;;;;;;;7.05;3.83;;;22.60;99.90;;;;;;5017175;28;20501;-80
2023/08/19 02:14:15;;;;;;;8.52;3.53;;;22.70;99.90;;;;;;5019245;28;20504;-79
2023/08/19 02:16:40;;;;;;;12.88;4.28;;;22.70;99.90;;;;;;5003033;28;20067;-79
2023/08/19 02:19:06;;;;;;;6.63;3.88;;;22.50;99.90;;;;;;5018632;28;20079;-80
2023/08/19 02:21:31;;;;;;;6.45;3.60;;;22.50;99.90;;;;;;5019257;28;20034;-79
2023/08/19 02:23:57;;;;;;;7.30;4.10;;;22.40;99.90;;;;;;5018269;28;20030;-79
2023/08/19 02:26:22;;;;;;;6.82;4.13;;;22.50;99.90;;;;;;5014866;28;21544;-80
2023/08/19 02:28:48;;;;;;;10.57;4.35;;;22.40;99.90;;;;;;5002798;28;20045;-79
2023/08/19 02:31:14;;;;;;;8.85;4.35;;;22.30;99.90;;;;;;5001625;28;20030;-79
2023/08/19 02:33:41;;;;;;;13.85;5.35;;;22.20;99.90;;;;;;4994959;28;20482;-79
2023/08/19 02:36:06;;;;;;;11.80;4.32;;;22.20;99.90;;;;;;5018131;28;20037;-80
2023/08/19 02:38:32;;;;;;;5.45;4.50;;;22.10;99.90;;;;;;5016824;28;20030;-80
2023/08/19 02:40:57;;;;;;;5.97;4.55;;;22.30;99.90;;;;;;5007248;28;20069;-79
2023/08/19 02:43:23;;;;;;;5.82;4.57;;;22.20;99.90;;;;;;5033146;28;20104;-79
2023/08/19 02:45:49;;;;;;;6.82;5.00;;;22.20;99.90;;;;;;4990377;28;20066;-80
2023/08/19 02:48:15;;;;;;;4.20;3.75;;;22.20;99.90;;;;;;4995748;28;20037;-79
2023/08/19 02:50:41;;;;;;;11.80;4.18;;;22.20;99.90;;;;;;5017759;28;20037;-80
2023/08/19 02:53:06;;;;;;;11.50;4.40;;;22.10;99.90;;;;;;5001650;28;20038;-79
2023/08/19 02:55:33;;;;;;;6.85;3.90;;;22.10;99.90;;;;;;5016219;28;20036;-79
2023/08/19 02:57:59;;;;;;;3.72;3.42;;;22.10;99.90;;;;;;5003520;28;20508;-79
2023/08/19 03:00:25;;;;;;;6.88;4.10;;;22.10;99.90;;;;;;5015631;28;20025;-80
2023/08/19 03:02:52;;;;;;;8.75;5.00;;;22.20;99.90;;;;;;5013350;28;20038;-80
2023/08/19 03:05:17;;;;;;;10.55;4.72;;;22.00;99.90;;;;;;5018496;28;20026;-79
2023/08/19 03:07:43;;;;;;;7.20;5.00;;;22.10;99.90;;;;;;5016457;28;20030;-80
2023/08/19 03:10:08;;;;;;;8.50;5.03;;;21.90;99.90;;;;;;4988325;28;20029;-80
2023/08/19 03:12:34;;;;;;;8.20;4.47;;;21.90;99.90;;;;;;4999920;28;20065;-79
2023/08/19 03:14:59;;;;;;;7.53;4.55;;;21.80;99.90;;;;;;5017930;28;20430;-79
2023/08/19 03:17:25;;;;;;;9.50;4.57;;;21.90;99.90;;;;;;5015766;28;20029;-79
2023/08/19 03:19:51;;;;;;;7.40;4.68;;;21.90;99.90;;;;;;5016983;28;20045;-79
2023/08/19 03:22:16;;;;;;;8.52;4.68;;;21.80;99.90;;;;;;5016714;28;20032;-79
2023/08/19 03:24:43;;;;;;;7.68;4.65;;;21.80;99.90;;;;;;5019308;28;20109;-80
2023/08/19 03:27:08;;;;;;;9.02;4.88;;;21.80;99.90;;;;;;5016217;28;20489;-80
2023/08/19 03:29:34;;;;;;;9.00;4.43;;;21.80;99.90;;;;;;5017291;28;20042;-79
2023/08/19 03:31:59;;;;;;;5.47;4.30;;;21.90;99.90;;;;;;5014218;28;20037;-79
2023/08/19 03:34:25;;;;;;;6.43;3.92;;;21.90;99.90;;;;;;5005055;28;20150;-80
2023/08/19 03:36:50;;;;;;;6.60;4.03;;;22.00;99.90;;;;;;5017128;28;20029;-79
2023/08/19 03:39:16;;;;;;;8.20;4.10;;;22.00;99.90;;;;;;5017856;28;20030;-79
2023/08/19 03:41:41;;;;;;;4.75;3.40;;;22.10;99.90;;;;;;5005489;28;20034;-80
2023/08/19 03:44:07;;;;;;;7.95;4.30;;;22.10;99.90;;;;;;5001604;28;20037;-79
2023/08/19 03:46:33;;;;;;;5.30;3.63;;;22.20;99.90;;;;;;5017518;28;20033;-79
2023/08/19 03:48:58;;;;;;;6.53;4.25;;;22.10;99.90;;;;;;4990440;28;20080;-79
2023/08/19 03:51:24;;;;;;;8.82;4.00;;;22.10;99.90;;;;;;5016024;28;20521;-79
2023/08/19 03:53:51;;;;;;;6.32;3.45;;;22.00;99.90;;;;;;4999740;28;20030;-79
2023/08/19 03:56:17;;;;;;;6.95;3.55;;;22.10;99.90;;;;;;4991292;28;20448;-79
2023/08/19 03:58:43;;;;;;;4.35;3.10;;;22.10;99.90;;;;;;5001010;28;20053;-79
2023/08/19 04:01:09;;;;;;;6.47;3.50;;;22.10;99.90;;;;;;5014561;28;20037;-79
2023/08/19 04:03:34;;;;;;;5.43;3.38;;;22.00;99.90;;;;;;5002975;28;20071;-79
2023/08/19 04:06:00;;;;;;;7.45;3.75;;;22.00;99.90;;;;;;5015453;28;20428;-80
2023/08/19 04:08:26;;;;;;;6.28;3.60;;;22.00;99.90;;;;;;5017564;28;20064;-79
2023/08/19 04:10:51;;;;;;;6.40;3.25;;;22.00;99.90;;;;;;5003650;28;20037;-80
2023/08/19 04:13:17;;;;;;;4.18;3.38;;;22.10;99.90;;;;;;4999779;28;20033;-80
2023/08/19 04:15:43;;;;;;;6.18;4.13;;;22.10;99.90;;;;;;5001712;28;20033;-80
2023/08/19 04:18:08;;;;;;;4.18;3.10;;;22.20;99.90;;;;;;4999953;28;20038;-79
2023/08/19 04:20:40;;;;;;;6.78;3.58;;;22.20;99.90;;;;;;5018542;28;20396;-80
2023/08/19 04:23:06;;;;;;;5.82;3.63;;;22.20;99.90;;;;;;5011413;28;20040;-79
2023/08/19 04:25:31;;;;;;;5.63;3.78;;;22.10;99.90;;;;;;4995106;28;20033;-79
2023/08/19 04:27:57;;;;;;;8.40;3.67;;;22.10;99.90;;;;;;5014947;28;20421;-79
2023/08/19 04:30:23;;;;;;;8.93;4.13;;;22.00;99.90;;;;;;5013976;28;20059;-79
2023/08/19 04:32:49;;;;;;;4.07;3.10;;;22.00;99.90;;;;;;5017660;28;20071;-79
2023/08/19 04:35:15;;;;;;;6.13;3.22;;;22.10;99.90;;;;;;5020689;28;20037;-80
2023/08/19 04:37:40;;;;;;;3.08;2.70;;;22.10;99.90;;;;;;5008219;28;20029;-80
2023/08/19 04:40:09;;;;;;;4.43;3.28;;;22.20;99.90;;;;;;5017545;28;20029;-79
2023/08/19 04:42:38;;;;;;;3.45;2.90;;;22.30;99.90;;;;;;5025183;28;20037;-79
2023/08/19 04:45:09;;;;;;;7.50;3.75;;;22.20;99.90;;;;;;5019490;28;20048;-79
2023/08/19 04:47:34;;;;;;;6.75;3.22;;;22.30;99.90;;;;;;5018136;28;20082;-79
2023/08/19 04:50:00;;;;;;;5.57;3.08;;;22.20;99.90;;;;;;5017726;28;20051;-80
2023/08/19 04:52:26;;;;;;;4.15;2.78;;;22.30;99.90;;;;;;5020225;28;20076;-79
2023/08/19 04:54:52;;;;;;;3.60;3.00;;;22.20;99.90;;;;;;5006238;28;20045;-79
2023/08/19 04:57:17;;;;;;;6.55;3.00;;;22.30;99.90;;;;;;5019110;28;20033;-79
2023/08/19 04:59:43;;;;;;;3.85;3.13;;;22.40;99.90;;;;;;5020496;28;20091;-80
2023/08/19 05:02:08;;;;;;;6.47;3.60;;;22.50;99.90;;;;;;5018322;28;20409;-79
2023/08/19 05:04:34;;;;;;;3.50;2.85;;;22.50;99.90;;;;;;5016341;28;20413;-80
2023/08/19 05:07:00;;;;;;;4.15;3.22;;;22.50;99.90;;;;;;5015794;28;20037;-79
2023/08/19 05:09:25;;;;;;;4.43;2.75;;;22.60;99.90;;;;;;5001940;28;20057;-79
2023/08/19 05:11:51;;;;;;;3.03;2.60;;;22.60;99.90;;;;;;5019386;28;20026;-79
2023/08/19 05:14:17;;;;;;;3.45;3.15;;;22.70;99.90;;;;;;5019296;28;20030;-79
2023/08/19 05:16:42;;;;;;;3.45;2.58;;;22.80;99.90;;;;;;5020230;28;20037;-79
2023/08/19 05:19:18;;;;;;;4.75;2.92;;;22.80;99.90;;;;;;5018262;28;20044;-79
2023/08/19 05:21:44;;;;;;;;;;;22.90;99.90;;;;;;5005135;28;20820;-79
2023/08/19 05:24:11;;;;;;;5.18;2.88;;;22.90;99.90;;;;;;5016638;28;19917;-78
2023/08/19 05:26:39;;;;;;;3.22;2.92;;;23.00;99.90;;;;;;5016600;28;20041;-79
2023/08/19 05:29:05;;;;;;;6.57;2.90;;;23.10;99.90;;;;;;5016495;28;20045;-79
2023/08/19 05:31:30;;;;;;;4.25;2.83;;;23.10;99.90;;;;;;5020755;28;20033;-79
2023/08/19 05:33:56;;;;;;;2.95;2.60;;;23.20;99.90;;;;;;5002880;28;20441;-79
2023/08/19 05:36:21;;;;;;;5.05;2.88;;;23.20;99.90;;;;;;5015201;28;20417;-79
2023/08/19 05:38:47;;;;;;;7.30;3.20;;;23.20;99.90;;;;;;4990562;28;20056;-80
2023/08/19 05:41:12;;;;;;;5.93;2.78;;;23.30;99.90;;;;;;5003008;28;20033;-79
2023/08/19 05:43:38;;;;;;;4.47;2.75;;;23.40;99.90;;;;;;4983653;28;20485;-79
2023/08/19 05:46:05;;;;;;;6.68;3.28;;;23.40;99.90;;;;;;4999952;28;20437;-79
2023/08/19 05:48:31;;;;;;;3.65;2.72;;;23.50;99.90;;;;;;5002512;28;20040;-79
2023/08/19 05:50:56;;;;;;;4.55;2.70;;;23.60;99.90;;;;;;5016058;28;20108;-79
2023/08/19 05:53:22;;;;;;;3.58;2.67;;;23.60;99.90;;;;;;5022453;28;20045;-79
2023/08/19 05:55:47;;;;;;;7.38;3.38;;;23.70;99.90;;;;;;5021249;28;20040;-79
2023/08/19 05:58:14;;;;;;;4.55;3.45;;;23.70;99.90;;;;;;5014504;28;20544;-79
2023/08/19 06:00:41;;;;;;;10.00;3.85;;;23.70;99.90;;;;;;4998045;28;20037;-78
2023/08/19 06:03:07;;;;;;;7.35;3.40;;;23.80;99.90;;;;;;5016517;28;20037;-80
2023/08/19 06:05:35;;;;;;;7.90;3.42;;;23.90;99.90;;;;;;5017441;28;20025;-80
2023/08/19 06:08:00;;;;;;;7.00;2.50;;;23.90;99.90;;;;;;5002827;28;20091;-80
2023/08/19 06:10:26;;;;;;;3.42;2.40;;;24.00;99.90;;;;;;5017550;28;20443;-80
2023/08/19 06:12:51;;;;;;;3.42;2.60;;;24.00;99.90;;;;;;5007664;28;20033;-80
2023/08/19 06:15:19;;;;;;;5.18;2.85;;;24.00;99.90;;;;;;5019049;28;20116;-80
2023/08/19 06:17:45;;;;;;;4.00;2.50;;;24.10;99.90;;;;;;5020919;28;20049;-78
2023/08/19 06:20:10;;;;;;;4.32;2.72;;;24.10;99.90;;;;;;5015738;28;20451;-81
2023/08/19 06:22:36;;;;;;;5.32;3.00;;;24.20;99.90;;;;;;5015826;28;20482;-80
2023/08/19 06:25:03;;;;;;;4.15;2.80;;;24.20;99.90;;;;;;5015836;28;20034;-80
2023/08/19 06:27:29;;;;;;;4.78;2.90;;;24.30;99.90;;;;;;5014643;28;20105;-78
2023/08/19 06:29:54;;;;;;;7.05;2.90;;;24.30;99.90;;;;;;5017777;28;20136;-80
2023/08/19 06:32:20;;;;;;;6.03;2.55;;;24.40;99.90;;;;;;5002096;28;20136;-80
2023/08/19 06:34:46;;;;;;;5.80;2.63;;;24.50;99.90;;;;;;5020831;28;20049;-80
2023/08/19 06:37:12;;;;;;;7.22;3.08;;;24.60;99.90;;;;;;5022430;28;20548;-81
2023/08/19 06:39:39;;;;;;;6.35;2.83;;;24.70;99.90;;;;;;5001504;28;20034;-81
2023/08/19 06:42:05;;;;;;;4.65;2.75;;;24.70;99.70;;;;;;4998949;28;20044;-81
2023/08/19 06:44:32;;;;;;;7.80;2.92;;;24.80;99.80;;;;;;4997259;28;20132;-81
2023/08/19 06:46:58;;;;;;;6.22;2.80;;;24.90;99.90;;;;;;5009385;28;20504;-82
2023/08/19 06:49:24;;;;;;;5.65;3.22;;;25.00;99.70;;;;;;4991341;28;20045;-81
2023/08/19 06:51:49;;;;;;;3.65;2.72;;;25.10;99.70;;;;;;4999411;28;20045;-81
2023/08/19 06:54:15;;;;;;;3.03;2.72;;;25.10;99.50;;;;;;5019451;28;20052;-81
2023/08/19 06:56:53;;;;;;;4.28;2.90;;;25.20;99.40;;;;;;5003525;28;20389;-80
2023/08/19 06:59:35;;;;;;;7.40;2.95;;;25.20;99.70;;;;;;5019806;28;20042;-81
2023/08/19 07:02:02;;;;;;;4.10;3.05;;;25.30;99.40;;;;;;5017043;28;20901;-82
2023/08/19 07:04:29;;;;;;;5.50;3.20;;;25.30;99.20;;;;;;4990972;28;20076;-81
2023/08/19 07:06:58;;;;;;;4.38;2.53;;;25.30;99.00;;;;;;5003989;28;20033;-81
2023/08/19 07:09:24;;;;;;;8.13;3.88;;;25.50;99.70;;;;;;4982137;28;20041;-81
2023/08/19 07:11:55;;;;;;;5.00;3.28;;;25.50;99.00;;;;;;5013701;28;20096;-79
2023/08/19 07:14:21;;;;;;;4.15;2.85;;;25.60;99.90;;;;;;5017197;28;20038;-80
2023/08/19 07:16:47;;;;;;;5.20;2.80;;;25.70;99.40;;;;;;5003539;28;20398;-81
2023/08/19 07:19:14;;;;;;;8.32;2.72;;;25.70;99.20;;;;;;5001580;28;20048;-80
2023/08/19 07:21:39;;;;;;;12.07;2.80;;;25.70;99.90;;;;;;5001376;28;20112;-80
2023/08/19 07:24:05;;;;;;;6.45;3.10;;;25.80;99.60;;;;;;5001739;28;20133;-80
2023/08/19 07:26:31;;;;;;;5.82;2.55;;;25.80;99.90;;;;;;5002329;28;20148;-80
2023/08/19 07:28:58;;;;;;;6.18;2.65;;;25.90;99.90;;;;;;5002609;28;20041;-80
2023/08/19 07:31:24;;;;;;;3.70;2.58;;;25.90;99.50;;;;;;5014688;28;20187;-80
2023/08/19 07:33:50;;;;;;;3.30;2.50;;;25.90;99.80;;;;;;5014536;28;20193;-80
2023/08/19 07:36:15;;;;;;;6.70;3.67;;;26.00;99.90;;;;;;5017099;28;20490;-80
2023/08/19 07:38:41;;;;;;;6.25;3.30;;;26.00;99.00;;;;;;5003170;28;20033;-81
2023/08/19 07:41:06;;;;;;;3.38;2.92;;;26.00;99.80;;;;;;4990315;28;20038;-80
2023/08/19 07:43:32;;;;;;;4.05;2.75;;;26.10;99.90;;;;;;5018310;28;20034;-80
2023/08/19 07:45:58;;;;;;;2.97;2.38;;;26.20;99.90;;;;;;5002596;28;22823;-80
2023/08/19 07:48:24;;;;;;;4.30;3.30;;;26.10;99.40;;;;;;5000604;28;20100;-81
2023/08/19 07:50:50;;;;;;;3.13;2.50;;;26.30;99.90;;;;;;5019536;28;20117;-81
2023/08/19 07:53:16;;;;;;;7.07;2.97;;;26.30;99.90;;;;;;5015024;28;20034;-79
2023/08/19 07:55:42;;;;;;;6.93;3.20;;;26.30;99.90;;;;;;5014495;28;20524;-81
2023/08/19 07:58:07;;;;;;;3.53;2.72;;;26.40;99.90;;;;;;5015381;28;20053;-81
2023/08/19 08:00:33;;;;;;;6.38;3.35;;;26.50;99.70;;;;;;5017809;28;20528;-81
2023/08/19 08:02:59;;;;;;;4.22;2.67;;;26.50;99.90;;;;;;4989475;28;20715;-81
2023/08/19 08:05:24;;;;;;;6.65;3.60;;;26.50;98.90;;;;;;5000068;28;20408;-80
2023/08/19 08:07:50;;;;;;;7.57;3.22;;;26.50;99.40;;;;;;5003345;28;20026;-80
2023/08/19 08:10:16;;;;;;;3.97;2.65;;;26.50;98.90;;;;;;5001168;28;20037;-80
2023/08/19 08:12:41;;;;;;;3.38;2.60;;;26.50;99.30;;;;;;5016441;28;20053;-80
2023/08/19 08:15:08;;;;;;;8.00;2.88;;;26.70;99.20;;;;;;5002699;28;20034;-80
2023/08/19 08:17:34;;;;;;;3.75;2.47;;;26.70;99.20;;;;;;5017378;28;20060;-80
2023/08/19 08:20:00;;;;;;;6.32;3.22;;;26.80;98.30;;;;;;4998510;28;20057;-80
2023/08/19 08:22:26;;;;;;;4.47;2.90;;;26.80;98.30;;;;;;5019852;28;20045;-80
2023/08/19 08:24:51;;;;;;;5.20;2.50;;;26.90;98.00;;;;;;5014764;28;20034;-79
2023/08/19 08:27:17;;;;;;;6.55;2.90;;;27.10;98.50;;;;;;5010351;28;20042;-80
2023/08/19 08:29:42;;;;;;;8.80;2.97;;;27.10;98.10;;;;;;5015216;28;20045;-80
2023/08/19 08:32:09;;;;;;;8.88;3.00;;;27.30;98.50;;;;;;4986688;28;20041;-79
2023/08/19 08:34:35;;;;;;;5.75;3.10;;;27.40;98.00;;;;;;5015121;28;20131;-78
2023/08/19 08:37:01;;;;;;;4.97;2.70;;;27.70;98.90;;;;;;4995246;28;20037;-78
2023/08/19 08:39:26;;;;;;;4.70;2.72;;;27.80;97.60;;;;;;5012876;28;20038;-78
2023/08/19 08:41:52;;;;;;;6.63;2.95;;;28.00;97.60;;;;;;5000666;28;20064;-78
2023/08/19 08:44:19;;;;;;;6.10;3.05;;;28.30;97.90;;;;;;4986519;28;20042;-80
2023/08/19 08:46:45;;;;;;;4.15;2.92;;;28.40;98.00;;;;;;5013440;28;20033;-82
2023/08/19 08:49:10;;;;;;;4.97;2.22;;;29.00;97.80;;;;;;4991489;28;20042;-80
2023/08/19 08:51:36;;;;;;;7.13;3.20;;;29.40;96.90;;;;;;5003000;28;20038;-80
2023/08/19 08:54:02;;;;;;;4.63;2.85;;;29.80;97.90;;;;;;5002958;28;20068;-80
2023/08/19 08:56:28;;;;;;;7.90;3.25;;;30.20;97.50;;;;;;5010570;28;20034;-81
2023/08/19 08:58:53;;;;;;;5.45;3.35;;;30.60;99.00;;;;;;5013151;28;20049;-81
2023/08/19 09:01:20;;;;;;;5.93;3.40;;;30.60;97.00;;;;;;5017173;28;20068;-81
2023/08/19 09:03:46;;;;;;;3.50;2.85;;;30.90;97.50;;;;;;5004081;28;20530;-81
2023/08/19 09:06:15;;;;;;;4.07;3.22;;;31.00;96.00;;;;;;5016913;28;20501;-82
2023/08/19 09:08:46;;;;;;;4.68;3.40;;;31.00;95.60;;;;;;5004209;28;20037;-81
2023/08/19 09:11:13;;;;;;;5.03;2.80;;;31.20;97.50;;;;;;5015548;28;20085;-79
2023/08/19 09:13:38;;;;;;;5.07;3.65;;;31.30;95.80;;;;;;5001736;28;20553;-81
2023/08/19 09:16:10;;;;;;;4.97;3.10;;;31.60;97.50;;;;;;5016244;28;20117;-80
2023/08/19 09:18:36;;;;;;;4.82;2.97;;;31.80;97.70;;;;;;5001461;28;20440;-80
2023/08/19 09:21:01;;;;;;;5.95;3.92;;;31.90;97.10;;;;;;5019283;28;20038;-79
2023/08/19 09:23:29;;;;;;;3.17;2.88;;;31.70;95.20;;;;;;4988439;28;20042;-80
2023/08/19 09:25:56;;;;;;;3.90;2.97;;;31.70;94.50;;;;;;5004940;28;20566;-79
2023/08/19 09:28:21;;;;;;;4.60;3.00;;;31.70;93.80;;;;;;5002887;28;20509;-81
2023/08/19 09:30:47;;;;;;;6.25;3.10;;;31.70;93.00;;;;;;5016568;28;20037;-80
2023/08/19 09:33:22;;;;;;;6.97;3.08;;;31.60;93.90;;;;;;5021541;28;20440;-80
2023/08/19 09:35:55;;;;;;;5.57;3.08;;;31.60;93.60;;;;;;5003016;28;20233;-80
2023/08/19 09:38:23;;;;;;;5.20;3.65;;;31.90;92.60;;;;;;5003221;28;20040;-80
2023/08/19 09:41:03;;;;;;;4.55;2.80;;;32.20;92.40;;;;;;5015974;28;20154;-81
2023/08/19 09:43:29;;;;;;;5.00;2.97;;;32.20;93.50;;;;;;5018263;28;20445;-81
2023/08/19 09:46:00;;;;;;;3.47;2.90;;;32.40;93.10;;;;;;4991518;28;20038;-81
2023/08/19 09:48:26;;;;;;;8.07;3.15;;;32.50;92.60;;;;;;5016733;28;20390;-82
2023/08/19 09:50:52;;;;;;;3.50;3.20;;;32.60;91.60;;;;;;5018557;28;20111;-82
2023/08/19 09:53:18;;;;;;;5.68;3.75;;;33.00;92.80;;;;;;5005861;28;20155;-80
2023/08/19 09:55:50;;;;;;;5.28;2.95;;;32.90;91.40;;;;;;5019407;28;20032;-83
2023/08/19 09:58:16;;;;;;;4.32;3.25;;;33.00;91.30;;;;;;5021419;28;20048;-82
2023/08/19 10:00:41;;;;;;;4.07;2.88;;;32.80;90.80;;;;;;5020926;28;20045;-84
2023/08/19 10:03:07;;;;;;;5.15;3.22;;;33.00;90.60;;;;;;5013234;28;20473;-83
2023/08/19 10:05:36;;;;;;;6.20;3.25;;;33.30;91.70;;;;;;5001200;28;20026;-85
2023/08/19 10:08:05;;;;;;;6.22;3.28;;;33.50;90.80;;;;;;5000270;28;20037;-84
2023/08/19 10:10:31;;;;;;;6.80;3.60;;;33.70;91.80;;;;;;4993335;28;20022;-82
2023/08/19 10:12:57;;;;;;;5.45;3.17;;;33.50;90.40;;;;;;5016505;28;20439;-84
2023/08/19 10:15:22;;;;;;;7.93;3.47;;;34.00;92.70;;;;;;4995202;28;20034;-83
2023/08/19 10:17:50;;;;;;;6.07;3.38;;;33.90;90.40;;;;;;4992406;28;20033;-83
2023/08/19 10:20:17;;;;;;;8.20;3.60;;;33.80;91.30;;;;;;4988967;28;20029;-83
2023/08/19 10:22:45;;;;;;;6.60;3.20;;;34.30;93.30;;;;;;5003016;28;20029;-83
2023/08/19 10:25:11;;;;;;;5.38;2.90;;;34.30;90.40;;;;;;4991099;28;20043;-84
2023/08/19 10:27:37;;;;;;;6.03;3.30;;;34.50;92.40;;;;;;5035429;28;20026;-84
2023/08/19 10:30:22;;;;;;;4.68;2.80;;;34.70;89.20;;;;;;4997301;28;20481;-84
2023/08/19 10:32:48;;;;;;;;;;;34.80;91.70;;;;;;5000455;28;20045;-84
2023/08/19 10:35:14;;;;;;;4.25;3.00;;;35.20;91.50;;;;;;5005832;28;20427;-84
2023/08/19 10:37:43;;;;;;;3.30;2.97;;;35.50;91.20;;;;;;5017070;28;20488;-80
2023/08/19 10:40:11;;;;;;;4.72;2.70;;;35.60;88.00;;;;;;4988327;28;20033;-83
2023/08/19 10:42:38;;;;;;;7.72;3.90;;;35.80;91.50;;;;;;5002949;28;20539;-83
2023/08/19 10:45:19;;;;;;;12.32;3.92;;;36.30;90.40;;;;;;5003370;28;20021;-83
2023/08/19 10:47:44;;;;;;;4.57;4.18;;;36.10;85.00;;;;;;5003287;28;20045;-81
2023/08/19 10:50:11;;;;;;;10.68;3.67;;;36.50;89.40;;;;;;5003978;28;20042;-81
2023/08/19 10:53:04;;;;;;;4.93;3.80;;;36.60;87.70;;;;;;5002278;28;20037;-81
2023/08/19 10:55:54;;;;;;;4.15;3.55;;;36.70;87.10;;;;;;5003565;28;20489;-82
2023/08/19 10:58:20;;;;;;;5.10;4.03;;;36.70;86.30;;;;;;5017307;28;20038;-81
2023/08/19 11:00:46;;;;;;;6.47;3.92;;;36.70;87.00;;;;;;5016810;28;20072;-83
2023/08/19 11:03:12;;;;;;;6.78;3.95;;;36.70;86.80;;;;;;5003627;28;20037;-83
2023/08/19 11:05:48;;;;;;;7.72;3.92;;;36.80;86.00;;;;;;5004573;28;20069;-83
2023/08/19 11:08:14;;;;;;;7.35;3.80;;;36.80;85.40;;;;;;5000236;28;20267;-82
2023/08/19 11:10:39;;;;;;;5.30;3.28;;;36.90;87.00;;;;;;5015476;28;20086;-83
2023/08/19 11:13:05;;;;;;;7.43;4.35;;;37.00;85.90;;;;;;5017139;28;20441;-84
2023/08/19 11:15:31;;;;;;;4.70;3.33;;;37.00;86.50;;;;;;4988583;28;20033;-83
2023/08/19 11:17:56;;;;;;;6.60;3.88;;;37.00;84.90;;;;;;4989599;28;20057;-83
2023/08/19 11:20:27;;;;;;;6.32;3.80;;;36.80;83.20;;;;;;4994287;28;20549;-83
2023/08/19 11:22:53;;;;;;;6.80;4.50;;;36.80;83.60;;;;;;5017024;28;20485;-83
2023/08/19 11:25:19;;;;;;;5.35;4.28;;;36.70;83.70;;;;;;5014776;28;20092;-83
2023/08/19 11:27:45;;;;;;;7.95;4.22;;;36.60;83.50;;;;;;5017812;28;20026;-83
2023/08/19 11:30:11;;;;;;;8.32;4.38;;;36.50;83.90;;;;;;5016818;28;20041;-83
2023/08/19 11:32:37;;;;;;;4.22;3.63;;;36.50;84.50;;;;;;5001996;28;20033;-84
2023/08/19 11:35:04;;;;;;;9.10;4.32;;;36.30;84.30;;;;;;4987981;28;20026;-83
2023/08/19 11:37:29;;;;;;;11.05;3.90;;;36.20;84.30;;;;;;5017217;28;20025;-83
2023/08/19 11:39:55;;;;;;;5.25;4.32;;;36.10;86.20;;;;;;5001796;28;20543;-84
2023/08/19 11:42:21;;;;;;;9.13;4.90;;;35.70;86.50;;;;;;5007592;28;20493;-83
2023/08/19 11:44:46;;;;;;;12.70;5.20;;;35.40;87.50;;;;;;5001548;28;20121;-84
2023/08/19 11:47:12;;;;;;;6.55;4.25;;;35.10;89.50;;;;;;3966733;28;10000494;-85
2023/08/19 11:49:38;;;;;;;4.25;3.85;;;34.80;90.30;;;;;;4655498;28;10000521;-84
2023/08/19 11:52:04;;;;;;;6.93;5.13;;;34.20;91.20;;;;;;5019170;28;20030;-85
2023/08/19 11:54:29;;;;;;;12.23;5.18;;;33.60;91.90;;;;;;5012866;28;20049;-84
2023/08/19 11:56:55;;;;;;;8.02;6.03;;;33.10;92.60;;;;;;4993950;28;20045;-86
2023/08/19 11:59:31;;;;;;;8.27;4.80;;;32.60;93.00;;;;;;5000421;28;20493;-87
2023/08/19 12:01:57;;;;;;;7.63;5.35;;;32.20;93.60;;;;;;4996221;28;20067;-85
2023/08/19 12:04:23;;;;;;;7.75;5.55;;;31.90;94.20;;;;;;5014342;28;20549;-85
2023/08/19 12:06:49;;;;;;;10.32;5.75;;;31.70;94.20;;;;;;5001435;28;20116;-85
2023/08/19 12:09:17;;;;;;;6.07;5.20;;;31.50;94.50;;;;;;5002808;28;20096;-82
2023/08/19 12:11:47;;;;;;;9.98;5.97;;;31.50;94.80;;;;;;4986647;28;20064;-84
2023/08/19 12:14:12;;;;;;;6.05;5.43;;;31.70;94.90;;;;;;4982995;28;20133;-83
2023/08/19 12:16:38;;;;;;;8.15;5.65;;;31.80;95.40;;;;;;5017903;28;20036;-84
2023/08/19 12:19:04;;;;;;;8.73;5.20;;;31.90;95.40;;;;;;5001627;28;20464;-83
2023/08/19 12:21:29;;;;;;;9.38;5.55;;;32.10;95.30;;;;;;5015027;28;20034;-84
2023/08/19 12:23:55;;;;;;;7.65;5.38;;;32.20;95.30;;;;;;5014364;28;20468;-84
2023/08/19 12:26:20;;;;;;;7.55;5.53;;;32.40;95.10;;;;;;5016986;28;20448;-84
2023/08/19 12:28:47;;;;;;;7.60;4.80;;;32.40;95.00;;;;;;5011459;28;20073;-83
2023/08/19 12:31:13;;;;;;;8.18;5.55;;;32.40;94.60;;;;;;5015321;28;20042;-83
2023/08/19 12:33:40;;;;;;;6.30;5.70;;;32.50;94.40;;;;;;5001310;28;20405;-83
2023/08/19 12:36:06;;;;;;;8.85;7.05;;;32.50;94.40;;;;;;5001039;28;20088;-84
2023/08/19 12:38:31;;;;;;;12.50;7.68;;;32.50;95.20;;;;;;5010857;28;20034;-84
2023/08/19 12:40:57;;;;;;;8.82;7.57;;;32.50;95.50;;;;;;4995306;28;20034;-84
2023/08/19 12:43:23;;;;;;;11.45;7.97;;;32.50;95.50;;;;;;5011445;28;20065;-84